createdAt,value
2023-01-19T05:11:27.174Z,22.23
2023-01-19T05:12:27.060Z,22.20
2023-01-19T05:13:27.113Z,22.21
2023-01-19T05:14:26.996Z,22.20
2023-01-19T05:15:26.960Z,22.20
2023-01-19T05:16:26.933Z,22.21
2023-01-19T05:17:26.900Z,22.23
2023-01-19T05:18:26.852Z,22.18
2023-01-19T05:19:26.877Z,22.20
2023-01-19T05:20:26.779Z,22.20
2023-01-19T05:21:26.749Z,22.20
2023-01-19T05:22:26.700Z,22.23
2023-01-19T05:23:26.675Z,22.21
2023-01-19T05:24:26.631Z,22.20
2023-01-19T05:25:27.161Z,22.21
2023-01-19T05:26:26.580Z,22.21
2023-01-19T05:27:26.549Z,22.21
2023-01-19T05:28:26.489Z,22.21
2023-01-19T05:29:26.451Z,22.21
2023-01-19T05:30:26.413Z,22.21
2023-01-19T05:31:26.474Z,22.20
2023-01-19T05:32:26.344Z,22.18
2023-01-19T05:33:26.307Z,22.21
2023-01-19T05:34:26.271Z,22.20
2023-01-19T05:35:35.738Z,22.20
2023-01-19T05:36:27.153Z,22.20
2023-01-19T05:37:26.082Z,22.21
2023-01-19T05:38:34.645Z,22.21
2023-01-19T05:39:26.923Z,22.21
2023-01-19T05:40:25.850Z,22.21
2023-01-19T05:41:25.752Z,22.23
2023-01-19T05:42:25.686Z,22.21
2023-01-19T05:43:25.607Z,22.21
2023-01-19T05:44:25.524Z,22.18
2023-01-19T07:46:16.768Z,24.18
2023-01-19T07:47:16.587Z,24.19
2023-01-19T07:48:16.538Z,24.20
2023-01-19T07:49:16.448Z,24.23
2023-01-19T07:50:16.384Z,24.26
2023-01-19T07:51:16.301Z,24.26
2023-01-19T07:52:16.225Z,24.18
2023-01-19T07:53:16.183Z,24.08
2023-01-19T07:54:16.230Z,23.99
2023-01-19T07:55:16.703Z,23.95
2023-01-19T07:56:16.105Z,23.94
2023-01-19T07:57:16.120Z,23.89
2023-01-19T07:58:16.015Z,23.88
2023-01-19T07:59:15.974Z,23.92
2023-01-19T08:00:15.931Z,23.91
2023-01-19T08:01:16.351Z,23.92
2023-01-19T08:02:17.269Z,23.92
2023-01-19T08:03:15.794Z,23.98
2023-01-19T08:04:15.791Z,24.01
2023-01-19T08:05:15.667Z,24.05
2023-01-19T08:06:15.600Z,24.09
2023-01-19T08:07:15.551Z,24.09
2023-01-19T09:46:06.795Z,24.38
2023-01-19T09:47:06.624Z,24.40
2023-01-19T09:57:06.194Z,24.55
2023-01-19T09:58:06.065Z,24.56
2023-01-19T09:59:06.005Z,24.57
2023-01-19T10:00:05.949Z,24.59
2023-01-19T10:01:06.032Z,24.60
2023-01-19T10:02:05.802Z,24.64
2023-01-19T10:03:05.782Z,24.64
2023-01-19T10:04:05.684Z,24.66
2023-01-19T10:05:05.636Z,24.67
2023-01-19T10:06:05.536Z,24.67
2023-01-19T10:07:05.526Z,24.69
2023-01-19T13:01:59.198Z,23.02
2023-01-19T13:02:59.209Z,23.01
2023-01-19T13:03:59.025Z,23.01
2023-01-19T13:04:59.006Z,23.01
2023-01-19T13:05:59.745Z,22.99
2023-01-19T13:06:58.933Z,23.02
2023-01-19T13:07:58.925Z,23.05
2023-01-19T13:08:58.986Z,23.09
2023-01-19T13:13:58.824Z,23.33
2023-01-19T13:14:59.069Z,23.40
2023-01-19T13:15:58.788Z,23.43
2023-01-19T13:16:58.739Z,23.49
2023-01-19T13:17:58.703Z,23.53
2023-01-19T13:18:58.708Z,23.56
2023-01-19T13:19:58.610Z,23.60
2023-01-19T13:20:58.575Z,23.62
2023-01-19T13:21:58.674Z,23.64
2023-01-19T13:22:58.463Z,23.68
2023-01-19T13:23:58.419Z,23.72
2023-01-19T13:24:58.434Z,23.74
2023-01-19T13:25:58.305Z,23.75
2023-01-19T13:26:58.324Z,23.80
2023-01-19T13:27:58.179Z,23.82
2023-01-19T13:28:58.099Z,23.85
2023-01-19T13:29:58.438Z,23.88
2023-01-19T13:30:58.138Z,23.91
2023-01-19T13:31:57.883Z,23.92
2023-01-19T13:32:58.743Z,23.95
2023-01-19T13:33:57.747Z,23.94
2023-01-19T13:34:57.821Z,23.97
2023-01-19T13:35:57.593Z,23.98
2023-01-19T13:36:58.320Z,23.98
2023-01-19T13:37:57.461Z,24.01
2023-01-19T13:38:57.375Z,24.01
2023-01-19T13:39:57.295Z,24.04
2023-01-19T13:40:57.289Z,24.02
2023-01-19T13:41:57.135Z,24.07
2023-01-19T13:42:57.057Z,24.07
2023-01-19T13:43:56.984Z,24.09
2023-01-19T13:44:56.910Z,24.08
2023-01-19T13:45:56.828Z,24.11
2023-01-19T13:46:56.766Z,24.11
2023-01-19T13:47:56.680Z,24.12
2023-01-19T13:48:56.605Z,24.12
2023-01-19T13:49:56.528Z,24.13
2023-01-19T13:50:56.459Z,24.11
2023-01-19T13:51:56.378Z,24.13
2023-01-19T13:52:56.827Z,24.13
2023-01-19T13:53:56.254Z,24.13
2023-01-19T13:54:56.142Z,24.13
2023-01-19T13:55:56.054Z,24.16
2023-01-19T13:56:55.970Z,24.12
2023-01-19T13:57:55.893Z,24.11
2023-01-19T13:58:55.824Z,24.09
2023-01-19T13:59:55.730Z,24.08
2023-01-19T14:00:55.734Z,24.07
2023-01-19T14:01:55.688Z,24.07
2023-01-19T14:45:51.997Z,24.15
2023-01-19T14:46:51.933Z,24.13
2023-01-19T14:47:51.848Z,24.13
2023-01-19T15:11:07.783Z,23.46
2023-01-19T15:12:07.736Z,23.40
2023-01-19T15:13:07.682Z,23.41
2023-01-19T15:14:07.624Z,23.40
2023-01-19T15:15:07.756Z,23.36
2023-01-19T15:16:07.547Z,23.37
2023-01-19T15:17:07.487Z,23.33
2023-01-19T15:18:07.463Z,23.30
2023-01-19T15:19:07.401Z,23.27
2023-01-19T15:20:07.367Z,23.29
2023-01-19T15:21:07.291Z,23.27
2023-01-19T15:22:07.243Z,23.23
2023-01-19T15:23:07.206Z,23.23
2023-01-19T15:24:07.165Z,23.20
2023-01-19T15:25:07.396Z,23.19
2023-01-19T15:26:07.075Z,23.16
2023-01-19T15:27:07.013Z,23.17
2023-01-19T15:28:06.971Z,23.14
2023-01-19T15:29:06.926Z,23.16
2023-01-19T15:30:06.874Z,23.13
2023-01-19T15:31:06.898Z,23.12
2023-01-19T15:32:06.787Z,23.13
2023-01-19T15:33:06.750Z,23.12
2023-01-19T15:35:06.858Z,23.10
2023-01-19T15:36:06.589Z,23.09
2023-01-19T15:37:06.543Z,23.07
2023-01-19T15:38:06.495Z,23.06
2023-01-19T15:39:06.452Z,23.05
2023-01-19T15:40:06.388Z,23.05
2023-01-19T15:41:06.845Z,23.05
2023-01-19T15:42:06.441Z,23.02
2023-01-19T15:43:06.251Z,23.02
2023-01-19T15:44:06.196Z,23.02
2023-01-19T15:45:06.744Z,22.99
2023-01-19T15:46:06.174Z,23.02
2023-01-19T15:47:06.029Z,23.02
2023-01-19T15:48:05.987Z,22.98
2023-01-19T15:49:05.936Z,23.02
2023-01-19T15:50:05.972Z,22.95
2023-01-19T15:51:05.845Z,22.98
2023-01-19T15:52:05.791Z,22.96
2023-01-19T15:53:05.769Z,22.93
2023-01-19T15:54:05.755Z,22.93
2023-01-19T15:55:05.752Z,22.93
2023-01-19T16:01:05.727Z,22.91
2023-01-19T16:07:05.695Z,22.88
2023-01-19T16:08:05.654Z,22.88
2023-01-19T16:09:05.642Z,22.88
2023-01-19T16:10:05.649Z,22.86
2023-01-19T16:11:05.631Z,22.88
2023-01-19T16:12:05.628Z,22.86
2023-01-19T16:13:05.634Z,22.86
2023-01-19T16:14:05.677Z,22.86
2023-01-19T16:15:05.641Z,22.86
2023-01-19T16:16:05.670Z,22.85
2023-01-19T16:17:05.652Z,22.85
2023-01-19T16:18:05.629Z,22.82
2023-01-19T16:19:05.628Z,22.82
2023-01-19T16:20:05.635Z,22.82
2023-01-19T16:21:05.654Z,22.82
2023-01-19T16:22:05.643Z,22.82
2023-01-19T16:23:19.616Z,22.82
2023-01-19T16:25:05.562Z,22.80
2023-01-19T16:26:05.521Z,22.79
2023-01-19T20:52:58.776Z,22.14
2023-01-19T21:06:58.319Z,22.13
2023-01-19T21:07:58.344Z,22.11
2023-01-19T21:08:58.302Z,22.11
2023-01-19T21:09:58.269Z,22.10
2023-01-19T21:10:58.237Z,22.08
2023-01-19T21:11:58.213Z,22.11
2023-01-19T21:12:58.196Z,22.11
2023-01-19T21:13:58.172Z,22.11
2023-01-19T21:14:58.189Z,22.10
2023-01-19T21:15:58.209Z,22.07
2023-01-19T21:16:58.108Z,22.11
2023-01-19T21:17:58.077Z,22.10
2023-01-19T21:18:58.046Z,22.07
2023-01-19T21:19:58.028Z,22.08
2023-01-19T21:20:58.099Z,22.10
2023-01-19T21:21:57.986Z,22.07
2023-01-19T21:22:58.002Z,22.10
2023-01-19T21:23:57.963Z,22.10
2023-01-19T21:24:58.056Z,22.08
2023-01-19T21:25:57.872Z,22.07
2023-01-19T21:26:57.854Z,22.07
2023-01-19T21:27:57.963Z,22.08
2023-01-19T21:28:57.835Z,22.10
2023-01-19T21:29:58.051Z,22.07
2023-01-19T21:30:57.783Z,22.07
2023-01-19T21:31:57.885Z,22.08
2023-01-19T21:32:57.725Z,22.07
2023-01-19T21:33:57.761Z,22.08
2023-01-19T21:34:57.676Z,22.08
2023-01-19T21:35:57.656Z,22.06
2023-01-19T21:36:57.634Z,22.10
2023-01-19T21:37:57.614Z,22.07
2023-01-19T21:38:57.581Z,22.07
2023-01-19T21:39:57.577Z,22.07
2023-01-19T21:40:57.543Z,22.07
2023-01-19T21:41:57.520Z,22.07
2023-01-19T21:42:57.499Z,22.06
2023-01-19T21:43:57.479Z,22.07
2023-01-19T21:44:57.484Z,22.07
2023-01-19T21:45:57.446Z,22.04
2023-01-19T21:46:57.402Z,22.03
2023-01-19T21:47:57.376Z,22.07
2023-01-19T21:48:57.357Z,22.06
2023-01-19T21:49:57.337Z,22.04
2023-01-19T21:50:57.300Z,22.06
2023-01-19T21:51:57.275Z,22.04
2023-01-19T21:52:57.273Z,22.06
2023-01-19T21:53:57.218Z,22.04
2023-01-19T22:01:57.171Z,22.03
2023-01-19T22:03:03.772Z,22.03
2023-01-19T22:04:56.932Z,22.04
2023-01-19T22:05:56.877Z,22.03
2023-01-19T22:06:56.838Z,22.00
2023-01-19T22:07:56.803Z,22.01
2023-01-19T22:08:56.776Z,22.01
2023-01-19T22:09:57.574Z,22.04
2023-01-19T22:10:56.715Z,22.03
2023-01-19T22:11:56.669Z,22.03
2023-01-19T22:12:56.611Z,22.03
2023-01-19T22:13:56.584Z,22.03
2023-01-19T22:14:56.525Z,22.03
2023-01-19T22:15:56.559Z,22.01
2023-01-19T22:16:56.505Z,22.01
2023-01-19T22:17:56.410Z,22.01
2023-01-19T22:18:56.401Z,22.00
2023-01-19T22:19:56.331Z,22.00
2023-01-19T22:20:56.319Z,21.99
2023-01-19T22:21:56.262Z,22.00
2023-01-19T22:22:56.191Z,22.01
2023-01-19T22:23:56.178Z,22.01
2023-01-19T22:24:56.114Z,21.99
2023-01-19T22:25:56.071Z,21.99
2023-01-19T22:26:56.047Z,22.00
2023-01-19T22:27:55.993Z,22.00
2023-01-19T22:28:55.957Z,22.01
2023-01-19T22:29:55.930Z,21.99
2023-01-19T22:30:55.938Z,21.99
2023-01-19T22:31:55.864Z,22.00
2023-01-19T22:32:55.781Z,22.00
2023-01-19T22:33:55.741Z,22.00
2023-01-19T22:34:55.711Z,22.00
2023-01-19T22:35:55.707Z,21.99
2023-01-19T22:36:55.669Z,21.99
2023-01-19T22:37:55.650Z,21.97
2023-01-19T22:38:55.710Z,21.99
2023-01-19T22:39:55.610Z,21.97
2023-01-19T22:40:55.608Z,22.00
2023-01-19T22:41:55.583Z,22.00
2023-01-19T22:42:55.570Z,21.94
2023-01-19T22:43:55.553Z,21.99
2023-01-19T22:44:55.536Z,21.97
2023-01-19T22:45:55.552Z,21.97
2023-01-19T22:46:55.571Z,22.00
